createdAt,value
2017-09-03T00:01:49.054Z,15.47
2017-09-03T00:04:16.621Z,15.90
2017-09-03T00:06:44.150Z,14.53
2017-09-03T00:09:11.713Z,15.60
2017-09-03T00:11:39.252Z,14.17
2017-09-03T00:14:06.817Z,15.27
2017-09-03T00:16:34.355Z,13.50
2017-09-03T00:19:01.938Z,14.47
2017-09-03T00:21:29.466Z,16.00
2017-09-03T00:23:56.998Z,15.77
2017-09-03T00:26:24.586Z,15.73
2017-09-03T00:28:52.117Z,14.87
2017-09-03T00:31:19.648Z,14.47
2017-09-03T00:33:47.218Z,14.97
2017-09-03T00:36:14.758Z,14.67
2017-09-03T00:38:42.282Z,15.87
2017-09-03T00:41:09.854Z,14.70
2017-09-03T00:43:37.416Z,14.57
2017-09-03T00:46:04.989Z,15.60
2017-09-03T00:48:32.546Z,14.40
2017-09-03T00:51:00.069Z,14.00
2017-09-03T00:53:27.635Z,12.93
2017-09-03T00:55:55.181Z,14.30
2017-09-03T00:58:22.753Z,14.77
2017-09-03T01:00:50.314Z,15.90
2017-09-03T01:03:17.850Z,15.20
2017-09-03T01:05:45.405Z,15.23
2017-09-03T01:08:12.929Z,14.80
2017-09-03T01:10:40.503Z,15.47
2017-09-03T01:13:08.039Z,13.47
2017-09-03T01:15:35.576Z,13.83
2017-09-03T01:18:03.149Z,15.30
2017-09-03T01:20:30.686Z,14.10
2017-09-03T01:22:58.262Z,15.07
2017-09-03T01:25:25.818Z,13.50
2017-09-03T01:27:53.351Z,14.53
2017-09-03T01:30:20.927Z,13.17
2017-09-03T01:32:48.487Z,14.93
2017-09-03T01:35:16.028Z,16.20
2017-09-03T01:37:43.608Z,15.00
2017-09-03T01:40:11.153Z,13.13
2017-09-03T01:42:38.710Z,13.10
2017-09-03T01:45:06.250Z,14.17
2017-09-03T01:47:33.814Z,13.57
2017-09-03T01:50:01.346Z,14.37
2017-09-03T01:52:28.917Z,13.50
2017-09-03T01:54:56.553Z,11.90
2017-09-03T01:57:24.109Z,12.20
2017-09-03T01:59:51.635Z,14.70
2017-09-03T02:02:19.210Z,13.60
2017-09-03T02:04:46.731Z,14.83
2017-09-03T02:07:14.302Z,15.13
2017-09-03T02:09:41.826Z,13.60
2017-09-03T02:12:09.354Z,12.97
2017-09-03T02:14:36.918Z,14.40
2017-09-03T02:17:04.448Z,14.63
2017-09-03T02:19:31.983Z,13.37
2017-09-03T02:21:59.551Z,13.70
2017-09-03T02:24:27.074Z,13.53
2017-09-03T02:26:54.630Z,12.10
2017-09-03T02:29:22.185Z,12.17
2017-09-03T02:31:49.765Z,12.70
2017-09-03T02:34:17.287Z,14.57
2017-09-03T02:36:44.824Z,15.63
2017-09-03T02:39:12.384Z,13.40
2017-09-03T02:41:39.915Z,12.97
2017-09-03T02:44:07.491Z,13.57
2017-09-03T02:46:35.031Z,14.17
2017-09-03T02:49:02.610Z,13.60
2017-09-03T02:51:30.142Z,12.73
2017-09-03T02:53:57.677Z,11.93
2017-09-03T02:56:25.246Z,13.57
2017-09-03T02:58:52.867Z,13.20
2017-09-03T03:01:20.402Z,13.77
2017-09-03T03:03:47.963Z,14.90
2017-09-03T03:06:15.494Z,13.13
2017-09-03T03:08:43.058Z,13.63
2017-09-03T03:11:10.588Z,13.50
2017-09-03T03:13:38.145Z,12.37
2017-09-03T03:16:05.713Z,13.40
2017-09-03T03:18:33.242Z,12.27
2017-09-03T03:21:00.828Z,12.33
2017-09-03T03:23:28.357Z,13.13
2017-09-03T03:25:55.885Z,13.30
2017-09-03T03:28:23.450Z,13.47
2017-09-03T03:30:50.973Z,12.40
2017-09-03T03:33:18.542Z,12.57
2017-09-03T03:35:46.092Z,12.60
2017-09-03T03:38:13.624Z,12.10
2017-09-03T03:40:41.209Z,13.00
2017-09-03T03:43:08.734Z,12.63
2017-09-03T03:45:36.313Z,12.27
2017-09-03T03:48:03.846Z,11.43
2017-09-03T03:50:31.379Z,11.80
2017-09-03T03:52:58.934Z,12.07
2017-09-03T03:55:26.462Z,13.30
2017-09-03T03:57:54.034Z,13.60
2017-09-03T04:00:21.562Z,13.77
2017-09-03T04:02:49.167Z,12.73
2017-09-03T04:05:16.696Z,12.07
2017-09-03T04:07:44.254Z,12.77
2017-09-03T04:10:11.790Z,12.33
2017-09-03T04:12:39.357Z,12.90
2017-09-03T04:15:06.919Z,12.70
2017-09-03T04:17:34.442Z,13.20
2017-09-03T04:20:01.997Z,12.17
2017-09-03T04:22:29.526Z,14.93
2017-09-03T04:24:57.099Z,10.70
2017-09-03T04:27:24.622Z,12.80
2017-09-03T04:29:52.194Z,11.93
2017-09-03T04:32:19.726Z,11.93
2017-09-03T04:34:47.254Z,13.70
2017-09-03T04:37:14.816Z,14.53
2017-09-03T04:39:42.359Z,13.20
2017-09-03T04:42:11.261Z,15.30
2017-09-03T04:44:38.823Z,14.60
2017-09-03T04:47:06.410Z,13.47
2017-09-03T04:49:33.938Z,13.80
2017-09-03T04:52:01.466Z,14.03
2017-09-03T04:54:29.022Z,14.50
2017-09-03T04:56:56.569Z,13.80
2017-09-03T04:59:24.154Z,13.60
2017-09-03T05:01:51.688Z,13.23
2017-09-03T05:04:19.224Z,14.80
2017-09-03T05:06:46.788Z,13.03
2017-09-03T05:09:14.329Z,12.87
2017-09-03T05:11:41.912Z,14.10
2017-09-03T05:14:09.441Z,14.07
2017-09-03T05:16:36.978Z,13.77
2017-09-03T05:19:04.545Z,14.70
2017-09-03T05:21:32.121Z,15.10
2017-09-03T05:23:59.655Z,14.47
2017-09-03T05:26:27.196Z,14.63
2017-09-03T05:28:54.755Z,15.80
2017-09-03T05:31:22.332Z,14.93
2017-09-03T05:33:49.857Z,14.03
2017-09-03T05:36:17.378Z,16.00
2017-09-03T05:38:44.945Z,13.93
2017-09-03T05:41:12.492Z,13.27
2017-09-03T05:43:40.066Z,14.60
2017-09-03T05:46:07.591Z,14.10
2017-09-03T05:48:35.123Z,15.00
2017-09-03T05:51:02.698Z,14.47
2017-09-03T05:53:30.237Z,15.37
2017-09-03T05:55:57.762Z,14.73
2017-09-03T05:58:25.322Z,15.30
2017-09-03T06:00:52.846Z,14.83
2017-09-03T06:03:20.375Z,15.43
2017-09-03T06:05:47.933Z,16.37
2017-09-03T06:08:15.474Z,16.17
2017-09-03T06:10:43.796Z,17.23
2017-09-03T06:13:11.323Z,18.03
2017-09-03T06:15:39.129Z,18.03
2017-09-03T06:18:06.661Z,19.23
2017-09-03T06:20:34.223Z,20.40
2017-09-03T06:23:01.806Z,19.87
2017-09-03T06:25:29.338Z,20.87
2017-09-03T06:27:56.871Z,23.60
2017-09-03T06:30:24.450Z,24.90
2017-09-03T06:32:51.988Z,20.33
2017-09-03T06:35:19.540Z,19.80
2017-09-03T06:37:47.105Z,18.23
2017-09-03T06:40:14.897Z,20.30
2017-09-03T06:42:42.484Z,20.93
2017-09-03T06:45:10.015Z,19.80
2017-09-03T06:47:37.546Z,20.00
2017-09-03T06:50:05.134Z,18.70
2017-09-03T06:52:32.713Z,18.70
2017-09-03T06:55:00.371Z,20.20
2017-09-03T06:57:27.914Z,20.10
2017-09-03T06:59:55.521Z,20.43
2017-09-03T07:02:23.049Z,20.60
2017-09-03T07:04:50.628Z,20.33
2017-09-03T07:07:18.162Z,20.60
2017-09-03T07:09:45.695Z,19.87
2017-09-03T07:12:13.271Z,19.53
2017-09-03T07:14:40.798Z,20.57
2017-09-03T07:17:08.355Z,20.47
2017-09-03T07:19:35.897Z,20.90
2017-09-03T07:22:03.455Z,19.27
2017-09-03T07:24:31.015Z,21.00
2017-09-03T07:26:58.554Z,19.43
2017-09-03T07:29:26.130Z,18.43
2017-09-03T07:31:53.663Z,18.20
2017-09-03T07:34:21.233Z,17.97
2017-09-03T07:36:48.765Z,20.67
2017-09-03T07:39:16.325Z,19.80
2017-09-03T07:41:43.894Z,20.30
2017-09-03T07:44:11.461Z,18.83
2017-09-03T07:46:39.000Z,19.97
2017-09-03T07:49:06.715Z,22.27
2017-09-03T07:51:34.238Z,17.40
2017-09-03T07:54:01.771Z,18.13
2017-09-03T07:56:29.347Z,17.77
2017-09-03T07:58:56.879Z,19.10
2017-09-03T08:01:24.455Z,20.43
2017-09-03T08:03:52.043Z,18.87
2017-09-03T08:06:19.619Z,16.53
2017-09-03T08:08:47.149Z,16.37
2017-09-03T08:11:14.677Z,16.73
2017-09-03T08:13:42.241Z,15.77
2017-09-03T08:16:09.762Z,16.37
2017-09-03T08:18:37.318Z,16.70
2017-09-03T08:21:04.902Z,14.37
2017-09-03T08:23:32.467Z,15.77
2017-09-03T08:25:59.999Z,15.80
2017-09-03T08:28:27.559Z,13.77
2017-09-03T08:30:55.121Z,16.30
2017-09-03T08:33:22.682Z,15.50
2017-09-03T08:35:50.206Z,14.00
2017-09-03T08:38:17.806Z,13.57
2017-09-03T08:40:45.330Z,13.30
2017-09-03T08:43:12.894Z,14.00
2017-09-03T08:45:40.421Z,13.60
2017-09-03T08:48:07.991Z,12.60
2017-09-03T08:50:35.559Z,11.83
2017-09-03T08:53:03.117Z,11.37
2017-09-03T08:55:30.679Z,12.60
2017-09-03T08:57:58.205Z,13.67
2017-09-03T09:00:25.764Z,12.60
2017-09-03T09:02:53.295Z,12.20
2017-09-03T09:05:20.814Z,11.83
2017-09-03T09:07:48.389Z,14.60
2017-09-03T09:10:15.920Z,11.53
2017-09-03T09:12:43.475Z,12.43
2017-09-03T09:15:10.998Z,12.60
2017-09-03T09:17:38.553Z,11.40
2017-09-03T09:20:06.114Z,11.57
2017-09-03T09:22:33.647Z,11.87
2017-09-03T09:25:01.973Z,10.80
2017-09-03T09:27:29.502Z,10.57
2017-09-03T09:29:57.074Z,11.20
2017-09-03T09:32:24.601Z,11.23
2017-09-03T09:34:52.159Z,10.70
2017-09-03T09:37:19.690Z,10.27
2017-09-03T09:39:47.265Z,11.17
2017-09-03T09:42:14.798Z,11.90
2017-09-03T09:44:42.366Z,10.93
2017-09-03T09:47:09.906Z,10.63
2017-09-03T09:49:37.454Z,9.83
2017-09-03T09:52:05.009Z,8.43
2017-09-03T09:54:32.557Z,9.50
2017-09-03T09:57:00.132Z,9.87
2017-09-03T09:59:27.682Z,8.80
2017-09-03T10:01:55.241Z,10.50
2017-09-03T10:04:22.765Z,9.90
2017-09-03T10:06:50.329Z,8.83
2017-09-03T10:09:17.849Z,8.20
2017-09-03T10:11:46.173Z,8.57
2017-09-03T10:14:13.727Z,9.63
2017-09-03T10:16:41.283Z,10.10
2017-09-03T10:19:08.837Z,11.50
2017-09-03T10:21:36.402Z,10.50
2017-09-03T10:24:03.960Z,11.27
2017-09-03T10:26:31.490Z,10.40
2017-09-03T10:28:59.072Z,11.67
2017-09-03T10:31:26.607Z,10.73
2017-09-03T10:33:54.135Z,9.97
2017-09-03T10:36:21.689Z,9.00
2017-09-03T10:38:49.228Z,11.80
2017-09-03T10:41:16.781Z,7.73
2017-09-03T10:43:44.295Z,6.00
2017-09-03T10:46:11.859Z,5.30
2017-09-03T10:48:39.378Z,5.37
2017-09-03T10:51:06.992Z,6.00
2017-09-03T10:53:34.534Z,5.87
2017-09-03T10:56:02.101Z,4.90
2017-09-03T10:58:29.621Z,5.20
2017-09-03T11:00:57.152Z,6.47
2017-09-03T11:03:24.713Z,5.40
2017-09-03T11:05:52.270Z,6.80
2017-09-03T11:08:19.828Z,5.47
2017-09-03T11:10:47.381Z,5.13
2017-09-03T11:13:14.929Z,6.50
2017-09-03T11:15:42.478Z,7.10
2017-09-03T11:18:10.041Z,7.10
2017-09-03T11:20:37.570Z,6.53
2017-09-03T11:23:05.096Z,5.87
2017-09-03T11:25:32.654Z,6.20
2017-09-03T11:28:01.016Z,5.83
2017-09-03T11:30:28.588Z,5.90
2017-09-03T11:32:56.114Z,6.83
2017-09-03T11:35:23.642Z,6.43
2017-09-03T11:37:51.197Z,6.00
2017-09-03T11:40:18.722Z,6.00
2017-09-03T11:42:46.279Z,6.30
2017-09-03T11:45:13.810Z,6.13
2017-09-03T11:47:41.348Z,6.17
2017-09-03T11:50:08.906Z,7.70
2017-09-03T11:52:36.462Z,6.40
2017-09-03T11:55:04.022Z,6.20
2017-09-03T11:57:31.541Z,6.60
2017-09-03T11:59:59.107Z,7.20
2017-09-03T12:02:26.635Z,6.43
2017-09-03T12:04:54.190Z,6.80
2017-09-03T12:07:21.730Z,6.80
2017-09-03T12:09:49.285Z,7.40
2017-09-03T12:12:16.839Z,7.40
2017-09-03T12:14:44.362Z,7.30
2017-09-03T12:17:11.926Z,7.37
2017-09-03T12:19:39.451Z,7.07
2017-09-03T12:22:07.014Z,7.40
2017-09-03T12:24:34.538Z,7.00
2017-09-03T12:27:02.113Z,6.67
2017-09-03T12:29:29.630Z,6.00
2017-09-03T12:31:57.187Z,7.17
2017-09-03T12:34:24.707Z,6.60
2017-09-03T12:36:52.267Z,8.30
2017-09-03T12:39:19.791Z,6.83
2017-09-03T12:41:47.370Z,6.60
2017-09-03T12:44:14.890Z,7.00
2017-09-03T12:46:42.450Z,7.10
2017-09-03T12:49:09.973Z,7.57
2017-09-03T12:51:37.498Z,6.03
2017-09-03T12:54:05.062Z,7.13
2017-09-03T12:56:32.636Z,6.17
2017-09-03T12:59:00.162Z,5.57
2017-09-03T13:01:27.691Z,6.37
2017-09-03T13:03:55.242Z,5.93
2017-09-03T13:06:22.767Z,6.40
2017-09-03T13:08:50.326Z,6.10
2017-09-03T13:11:17.847Z,7.20
2017-09-03T13:13:46.162Z,4.97
2017-09-03T13:16:13.686Z,8.40
2017-09-03T13:18:41.242Z,7.60
2017-09-03T13:21:08.774Z,8.13
2017-09-03T13:23:36.356Z,7.17
2017-09-03T13:26:03.882Z,7.30
2017-09-03T13:28:31.401Z,7.27
2017-09-03T13:30:58.970Z,5.43
2017-09-03T13:33:26.525Z,6.50
2017-09-03T13:35:54.047Z,6.37
2017-09-03T13:38:21.605Z,5.27
2017-09-03T13:40:49.137Z,5.90
2017-09-03T13:43:16.701Z,5.60
2017-09-03T13:45:44.233Z,5.90
2017-09-03T13:48:11.750Z,4.90
2017-09-03T13:50:39.297Z,5.00
2017-09-03T13:53:06.819Z,5.40
2017-09-03T13:55:34.378Z,5.07
2017-09-03T13:58:01.918Z,4.90
2017-09-03T14:00:29.463Z,4.80
2017-09-03T14:02:56.987Z,6.20
2017-09-03T14:05:24.586Z,5.93
2017-09-03T14:07:52.110Z,5.50
2017-09-03T14:10:19.662Z,5.60
2017-09-03T14:12:47.222Z,5.53
2017-09-03T14:15:14.747Z,5.77
2017-09-03T14:17:42.314Z,4.77
2017-09-03T14:20:09.839Z,6.40
2017-09-03T14:22:37.367Z,5.30
2017-09-03T14:25:04.930Z,4.53
2017-09-03T14:27:32.454Z,6.20
2017-09-03T14:30:00.009Z,5.07
2017-09-03T14:32:27.537Z,5.60
2017-09-03T14:34:56.142Z,6.43
2017-09-03T14:37:23.662Z,6.73
2017-09-03T14:39:51.222Z,6.50
2017-09-03T14:42:18.737Z,5.90
2017-09-03T14:44:46.258Z,6.63
2017-09-03T14:47:13.818Z,6.87
2017-09-03T14:49:41.346Z,7.33
2017-09-03T14:52:09.680Z,6.60
2017-09-03T14:54:37.206Z,7.20
2017-09-03T14:57:04.759Z,6.60
2017-09-03T14:59:32.330Z,6.93
2017-09-03T15:01:59.846Z,6.33
2017-09-03T15:04:27.367Z,5.90
2017-09-03T15:06:54.930Z,7.40
2017-09-03T15:09:22.454Z,6.03
2017-09-03T15:11:49.974Z,6.93
2017-09-03T15:14:17.534Z,5.90
2017-09-03T15:16:45.094Z,6.60
2017-09-03T15:19:12.647Z,6.87
2017-09-03T15:21:40.198Z,7.37
2017-09-03T15:24:07.718Z,6.43
2017-09-03T15:26:35.270Z,6.97
2017-09-03T15:29:02.790Z,8.30
2017-09-03T15:31:30.345Z,7.97
2017-09-03T15:33:57.891Z,9.20
2017-09-03T15:36:25.599Z,10.73
2017-09-03T15:38:53.212Z,10.87
2017-09-03T15:41:20.782Z,10.57
2017-09-03T15:43:48.310Z,10.70
2017-09-03T15:46:15.875Z,10.80
2017-09-03T15:48:43.447Z,9.83
2017-09-03T15:51:10.979Z,10.40
2017-09-03T15:53:38.539Z,11.13
2017-09-03T15:56:06.093Z,10.53
2017-09-03T15:58:33.635Z,8.87
2017-09-03T16:01:01.207Z,7.47
2017-09-03T16:03:28.836Z,10.17
2017-09-03T16:05:56.367Z,10.33
2017-09-03T16:08:23.926Z,10.07
2017-09-03T16:10:51.455Z,9.00
2017-09-03T16:13:19.035Z,11.40
2017-09-03T16:15:46.562Z,10.13
2017-09-03T16:18:14.085Z,9.40
2017-09-03T16:20:41.654Z,9.40
2017-09-03T16:23:09.183Z,9.47
2017-09-03T16:25:36.759Z,8.30
2017-09-03T16:28:04.285Z,7.20
2017-09-03T16:30:31.801Z,8.13
2017-09-03T16:32:59.354Z,8.60
2017-09-03T16:35:26.895Z,6.90
2017-09-03T16:37:54.449Z,6.87
2017-09-03T16:40:21.990Z,6.63
2017-09-03T16:42:49.541Z,6.27
2017-09-03T16:45:17.094Z,5.20
2017-09-03T16:47:44.652Z,4.90
2017-09-03T16:50:12.225Z,5.87
2017-09-03T16:52:39.750Z,5.53
2017-09-03T16:55:07.271Z,5.10
2017-09-03T16:57:34.825Z,5.97
2017-09-03T17:00:02.370Z,5.13
2017-09-03T17:02:29.918Z,4.80
2017-09-03T17:04:57.446Z,5.37
2017-09-03T17:07:25.011Z,5.27
2017-09-03T17:09:52.571Z,4.67
2017-09-03T17:12:20.102Z,4.43
2017-09-03T17:14:47.657Z,5.37
2017-09-03T17:17:15.177Z,6.10
2017-09-03T17:19:42.729Z,5.20
2017-09-03T17:22:11.918Z,5.73
2017-09-03T17:24:39.470Z,5.97
2017-09-03T17:27:07.013Z,5.30
2017-09-03T17:29:34.581Z,6.83
2017-09-03T17:32:02.106Z,6.17
2017-09-03T17:34:30.253Z,5.97
2017-09-03T17:36:58.610Z,6.87
2017-09-03T17:39:28.646Z,6.50
2017-09-03T17:41:56.204Z,5.63
2017-09-03T17:44:23.757Z,6.33
2017-09-03T17:46:54.855Z,5.93
2017-09-03T17:49:22.455Z,6.47
2017-09-03T17:51:50.007Z,8.47
2017-09-03T17:54:17.568Z,7.20
2017-09-03T17:56:45.128Z,5.40
2017-09-03T17:59:12.751Z,5.90
2017-09-03T18:01:40.336Z,5.97
2017-09-03T18:04:07.858Z,6.07
2017-09-03T18:06:35.430Z,5.90
2017-09-03T18:09:02.953Z,6.40
2017-09-03T18:11:31.245Z,7.80
2017-09-03T18:13:58.813Z,7.27
2017-09-03T18:16:26.346Z,6.10
2017-09-03T18:18:53.994Z,7.20
2017-09-03T18:21:21.522Z,6.60
2017-09-03T18:23:49.078Z,6.30
2017-09-03T18:26:16.623Z,6.77
2017-09-03T18:28:44.190Z,6.70
2017-09-03T18:31:14.357Z,6.97
2017-09-03T18:33:42.686Z,7.00
2017-09-03T18:36:15.946Z,7.10
2017-09-03T18:38:43.499Z,8.00
2017-09-03T18:41:21.882Z,7.43
2017-09-03T18:43:49.447Z,7.30
2017-09-03T18:46:16.982Z,8.40
2017-09-03T18:48:44.591Z,5.90
2017-09-03T18:51:13.315Z,6.43
2017-09-03T18:53:55.558Z,6.70
2017-09-03T18:56:23.574Z,8.20
2017-09-03T19:01:53.366Z,8.13
2017-09-03T19:04:20.919Z,7.97
2017-09-03T19:06:48.522Z,7.37
2017-09-03T19:09:16.871Z,6.97
2017-09-03T19:11:44.457Z,8.37
2017-09-03T19:14:12.032Z,7.40
2017-09-03T19:16:39.653Z,8.93
2017-09-03T19:19:07.207Z,9.77
2017-09-03T19:21:34.793Z,8.53
2017-09-03T19:24:02.329Z,10.80
2017-09-03T19:26:29.950Z,9.30
2017-09-03T19:28:57.486Z,9.90
2017-09-03T19:31:25.036Z,8.10
2017-09-03T19:33:52.595Z,8.70
2017-09-03T19:36:20.155Z,8.40
2017-09-03T19:38:47.687Z,8.50
2017-09-03T19:41:15.241Z,7.70
2017-09-03T19:43:42.801Z,8.23
2017-09-03T19:46:10.342Z,8.50
2017-09-03T19:48:37.870Z,8.30
2017-09-03T19:51:05.422Z,7.80
2017-09-03T19:53:32.962Z,9.77
2017-09-03T19:56:00.520Z,9.13
2017-09-03T19:58:28.039Z,9.30
2017-09-03T20:00:55.591Z,9.70
2017-09-03T20:03:23.122Z,9.20
2017-09-03T20:05:50.678Z,8.50
2017-09-03T20:08:18.211Z,8.30
2017-09-03T20:10:45.766Z,8.47
2017-09-03T20:13:13.303Z,9.50
2017-09-03T20:15:40.867Z,7.40
2017-09-03T20:18:08.403Z,8.47
2017-09-03T20:20:35.942Z,8.50
2017-09-03T20:23:03.526Z,9.43
2017-09-03T20:25:31.815Z,8.30
2017-09-03T20:27:59.353Z,8.33
2017-09-03T20:30:26.918Z,8.23
2017-09-03T20:32:54.438Z,8.10
2017-09-03T20:35:21.986Z,8.10
2017-09-03T20:37:49.514Z,8.50
2017-09-03T20:40:17.080Z,8.97
2017-09-03T20:42:44.613Z,7.90
2017-09-03T20:45:12.135Z,8.30
2017-09-03T20:47:39.702Z,8.50
2017-09-03T20:50:07.239Z,9.70
2017-09-03T20:52:34.814Z,9.27
2017-09-03T20:55:02.342Z,9.33
2017-09-03T20:57:29.929Z,8.03
2017-09-03T20:59:57.462Z,9.10
2017-09-03T21:02:24.986Z,8.40
2017-09-03T21:04:52.553Z,8.43
2017-09-03T21:07:20.080Z,8.97
2017-09-03T21:09:47.623Z,9.17
2017-09-03T21:12:15.184Z,10.53
2017-09-03T21:14:42.714Z,8.60
2017-09-03T21:17:10.322Z,8.00
2017-09-03T21:19:37.903Z,8.63
2017-09-03T21:22:05.462Z,8.63
2017-09-03T21:24:33.018Z,7.97
2017-09-03T21:27:00.546Z,7.50
2017-09-03T21:29:28.169Z,7.70
2017-09-03T21:31:55.730Z,9.60
2017-09-03T21:34:23.263Z,8.87
2017-09-03T21:36:50.829Z,8.57
2017-09-03T21:39:18.371Z,9.47
2017-09-03T21:41:45.925Z,8.33
2017-09-03T21:44:13.481Z,9.97
2017-09-03T21:46:41.050Z,9.20
2017-09-03T21:49:08.577Z,8.63
2017-09-03T21:51:36.148Z,8.10
2017-09-03T21:54:04.505Z,8.37
2017-09-03T21:56:32.034Z,7.90
2017-09-03T21:58:59.564Z,8.73
2017-09-03T22:01:27.124Z,8.67
2017-09-03T22:03:54.642Z,7.97
2017-09-03T22:06:22.204Z,8.07
2017-09-03T22:08:49.734Z,8.20
2017-09-03T22:11:17.307Z,9.17
2017-09-03T22:13:44.827Z,8.30
2017-09-03T22:16:12.355Z,8.17
2017-09-03T22:18:40.048Z,8.70
2017-09-03T22:21:07.586Z,8.40
2017-09-03T22:23:35.168Z,8.30
2017-09-03T22:26:02.689Z,8.57
2017-09-03T22:28:30.223Z,9.03
2017-09-03T22:30:57.774Z,9.03
2017-09-03T22:33:25.306Z,8.17
2017-09-03T22:35:52.858Z,8.67
2017-09-03T22:38:20.394Z,9.40
2017-09-03T22:40:47.953Z,8.90
2017-09-03T22:43:15.495Z,9.90
2017-09-03T22:45:43.067Z,8.60
2017-09-03T22:48:10.593Z,9.90
2017-09-03T22:50:38.118Z,9.17
2017-09-03T22:53:05.682Z,9.03
2017-09-03T22:55:33.216Z,9.77
2017-09-03T22:58:00.781Z,9.07
2017-09-03T23:00:28.313Z,7.90
2017-09-03T23:02:55.865Z,12.30
2017-09-03T23:05:23.407Z,8.20
2017-09-03T23:07:50.982Z,8.93
2017-09-03T23:10:18.515Z,9.23
2017-09-03T23:12:46.042Z,9.20
2017-09-03T23:15:13.615Z,9.13
2017-09-03T23:17:41.147Z,9.30
2017-09-03T23:20:08.693Z,9.17
2017-09-03T23:22:36.266Z,10.20
2017-09-03T23:25:03.807Z,9.23
2017-09-03T23:27:31.329Z,8.83
2017-09-03T23:29:58.890Z,10.20
2017-09-03T23:32:26.464Z,8.70
2017-09-03T23:34:54.796Z,9.47
2017-09-03T23:37:22.373Z,9.03
2017-09-03T23:39:49.909Z,8.70
2017-09-03T23:42:17.435Z,8.13
2017-09-03T23:44:45.021Z,8.50
2017-09-03T23:47:12.550Z,8.30
2017-09-03T23:49:40.111Z,8.30
2017-09-03T23:52:07.637Z,9.77
2017-09-03T23:54:35.981Z,8.47
2017-09-03T23:57:03.502Z,8.40
2017-09-03T23:59:31.062Z,9.10
